createdAt,value
2023-05-09T00:08:28.592Z,13.37
2023-05-09T00:18:28.803Z,13.37
2023-05-09T00:28:28.977Z,13.37
2023-05-09T00:38:29.167Z,13.37
2023-05-09T00:48:29.341Z,13.37
2023-05-09T00:58:29.507Z,13.37
2023-05-09T01:08:29.689Z,13.37
2023-05-09T01:18:29.866Z,12.38
2023-05-09T01:28:30.161Z,12.38
2023-05-09T01:38:30.136Z,12.38
2023-05-09T01:48:30.303Z,12.53
2023-05-09T01:58:30.477Z,12.53
2023-05-09T02:08:30.642Z,12.53
2023-05-09T02:18:30.813Z,12.53
2023-05-09T02:28:30.988Z,12.69
2023-05-09T02:38:31.160Z,12.69
2023-05-09T02:48:31.286Z,12.69
2023-05-09T02:58:31.478Z,12.69
2023-05-09T03:08:31.657Z,12.53
2023-05-09T03:18:31.831Z,12.69
2023-05-09T03:28:32.009Z,12.69
2023-05-09T03:38:32.222Z,12.85
2023-05-09T03:48:32.367Z,12.85
2023-05-09T03:58:32.520Z,12.85
2023-05-09T04:08:32.685Z,12.69
2023-05-09T04:18:32.831Z,12.53
2023-05-09T04:28:33.008Z,12.38
2023-05-09T04:38:33.176Z,12.06
2023-05-09T04:48:33.348Z,12.06
2023-05-09T04:58:33.506Z,12.06
2023-05-09T05:08:33.674Z,12.06
2023-05-09T05:18:33.861Z,12.22
2023-05-09T05:28:34.001Z,12.22
2023-05-09T05:38:34.156Z,12.06
2023-05-09T05:48:34.345Z,13.05
2023-05-09T05:58:34.495Z,12.88
2023-05-09T06:08:34.669Z,12.72
2023-05-09T06:18:34.834Z,12.72
2023-05-09T06:28:35.000Z,12.72
2023-05-09T06:38:35.158Z,12.55
2023-05-09T06:48:35.313Z,12.21
2023-05-09T06:58:35.458Z,12.21
2023-05-09T07:08:35.626Z,13.20
2023-05-09T07:18:35.812Z,12.68
2023-05-09T07:28:35.948Z,12.85
2023-05-09T07:38:36.107Z,13.11
2023-05-09T07:48:36.336Z,12.93
2023-05-09T07:58:36.428Z,12.74
2023-05-09T08:08:38.826Z,12.74
2023-05-09T08:18:36.689Z,12.55
2023-05-09T08:28:36.910Z,13.71
2023-05-09T08:38:37.013Z,13.52
2023-05-09T08:48:37.174Z,12.74
2023-05-09T08:58:37.326Z,14.47
2023-05-09T09:08:37.504Z,14.80
2023-05-09T09:18:39.660Z,15.01
2023-05-09T09:28:37.950Z,14.80
2023-05-09T09:38:38.082Z,15.54
2023-05-09T09:48:38.246Z,15.09
2023-05-09T09:58:38.420Z,15.82
2023-05-09T10:08:38.598Z,14.87
2023-05-09T10:18:38.804Z,15.35
2023-05-09T10:28:38.865Z,14.63
2023-05-09T10:38:39.005Z,14.38
2023-05-09T10:48:39.176Z,15.57
2023-05-09T10:58:39.338Z,14.38
2023-05-09T11:08:39.515Z,15.57
2023-05-09T11:18:39.744Z,15.57
2023-05-09T11:28:39.960Z,16.77
2023-05-09T11:38:40.134Z,15.57
2023-05-09T11:48:40.295Z,16.52
2023-05-09T11:58:40.445Z,17.25
2023-05-09T12:08:40.607Z,15.75
2023-05-09T12:18:40.768Z,15.82
2023-05-09T12:28:40.937Z,14.81
2023-05-09T12:38:41.106Z,15.75
2023-05-09T12:48:41.284Z,15.57
2023-05-09T12:58:41.446Z,16.01
2023-05-09T13:08:41.618Z,15.07
2023-05-09T13:18:41.790Z,15.57
2023-05-09T13:28:42.030Z,15.33
2023-05-09T13:38:42.176Z,15.33
2023-05-09T13:48:42.358Z,15.33
2023-05-09T13:58:42.521Z,15.33
2023-05-09T14:08:42.684Z,14.55
2023-05-09T14:18:42.858Z,14.81
2023-05-09T14:28:43.019Z,14.81
2023-05-09T14:38:43.192Z,15.22
2023-05-09T14:48:43.403Z,14.29
2023-05-09T14:58:43.564Z,14.81
2023-05-09T15:08:43.744Z,13.62
2023-05-09T15:18:43.895Z,13.62
2023-05-09T15:28:44.059Z,14.13
2023-05-09T15:38:44.236Z,12.94
2023-05-09T15:48:44.419Z,13.44
2023-05-09T15:58:44.593Z,13.44
2023-05-09T16:08:44.766Z,13.93
2023-05-09T16:18:44.937Z,13.68
2023-05-09T16:28:45.087Z,12.94
2023-05-09T16:38:45.242Z,13.22
2023-05-09T16:48:45.408Z,12.73
2023-05-09T16:58:45.565Z,13.09
2023-05-09T17:08:45.724Z,13.70
2023-05-09T17:18:46.183Z,15.07
2023-05-09T17:28:46.489Z,14.82
2023-05-09T17:38:46.769Z,15.52
2023-05-09T17:48:46.812Z,15.86
2023-05-09T17:58:47.036Z,15.69
2023-05-09T18:08:47.285Z,14.87
2023-05-09T18:18:47.575Z,14.70
2023-05-09T18:28:47.625Z,14.36
2023-05-09T18:38:47.879Z,14.70
2023-05-09T18:48:48.183Z,15.03
2023-05-09T18:58:48.257Z,13.88
2023-05-09T19:08:48.376Z,14.04
2023-05-09T19:18:48.420Z,14.04
2023-05-09T19:28:48.689Z,14.04
2023-05-09T19:38:48.755Z,14.20
2023-05-09T19:48:48.891Z,14.20
2023-05-09T19:58:49.042Z,14.37
2023-05-09T20:08:49.085Z,14.37
2023-05-09T20:18:51.984Z,14.37
2023-05-09T20:28:49.427Z,14.37
2023-05-09T20:38:49.511Z,13.37
2023-05-09T20:48:49.460Z,14.53
2023-05-09T20:58:49.355Z,13.53
2023-05-09T21:08:49.578Z,13.37
2023-05-09T21:18:49.786Z,13.21
2023-05-09T21:28:49.936Z,13.37
2023-05-09T21:38:50.098Z,13.37
2023-05-09T21:48:50.336Z,13.37
2023-05-09T21:58:50.411Z,13.37
2023-05-09T22:08:50.558Z,13.53
2023-05-09T22:18:50.725Z,13.53
2023-05-09T22:28:50.913Z,13.53
2023-05-09T22:38:51.075Z,13.53
2023-05-09T22:48:51.276Z,13.53
2023-05-09T22:58:51.429Z,13.53
2023-05-09T23:08:51.591Z,13.69
2023-05-09T23:18:51.766Z,13.69
2023-05-09T23:28:51.931Z,13.69
2023-05-09T23:38:52.101Z,13.69
2023-05-09T23:48:52.280Z,13.53
2023-05-09T23:58:52.455Z,13.53
